Time;durP1;ratioP1;P1;durP2;ratioP2;P2;SDS_P1;SDS_P2;PMS_P1;PMS_P2;Temp;Humidity;BMP_temperature;BMP_pressure;BME280_temperature;BME280_humidity;BME280_pressure;Samples;Min_cycle;Max_cycle;Signal;HPM_P1;HPM_P2
2021/06/22 00:01:22;;;;;;;8.25;6.10;;;;;;;20.15;84.63;100037.41;3586441;40;20051;-55
2021/06/22 00:03:49;;;;;;;6.57;5.57;;;;;;;20.13;85.00;100044.69;3584969;40;20061;-55
2021/06/22 00:06:16;;;;;;;6.68;5.18;;;;;;;20.07;84.88;100043.59;3586544;40;20100;-55
2021/06/22 00:08:44;;;;;;;5.30;4.72;;;;;;;20.00;84.51;100040.00;3586507;40;20088;-55
2021/06/22 00:11:11;;;;;;;5.82;5.10;;;;;;;19.93;84.13;100041.69;3586557;40;20075;-54
2021/06/22 00:13:38;;;;;;;6.72;5.72;;;;;;;19.84;84.90;100048.06;3585786;40;20045;-55
2021/06/22 00:16:05;;;;;;;6.00;5.40;;;;;;;19.75;85.60;100051.75;3586606;40;20056;-49
2021/06/22 00:18:33;;;;;;;8.32;5.90;;;;;;;19.65;86.17;100047.53;3586381;40;20405;-54
2021/06/22 00:21:00;;;;;;;7.97;5.30;;;;;;;19.70;86.22;100052.28;3586044;40;20049;-56
2021/06/22 00:23:28;;;;;;;7.22;5.25;;;;;;;19.65;87.05;100051.97;3596044;40;20084;-52
2021/06/22 00:25:56;;;;;;;6.40;5.80;;;;;;;19.61;86.55;100056.00;3596291;39;20431;-56
2021/06/22 00:28:23;;;;;;;9.23;5.15;;;;;;;19.59;86.97;100055.31;3596200;39;20095;-55
2021/06/22 00:30:51;;;;;;;9.68;5.80;;;;;;;19.60;86.34;100056.97;3596088;39;20052;-54
2021/06/22 00:33:18;;;;;;;6.32;5.28;;;;;;;19.57;86.42;100058.13;3596393;39;20058;-54
2021/06/22 00:35:46;;;;;;;6.13;5.53;;;;;;;19.48;87.23;100056.53;3596115;39;20066;-55
2021/06/22 00:38:13;;;;;;;6.18;5.57;;;;;;;19.47;86.58;100048.75;3596192;39;20290;-55
2021/06/22 00:40:41;;;;;;;9.18;7.82;;;;;;;19.60;87.98;100055.16;3595760;39;20040;-54
2021/06/22 00:43:08;;;;;;;8.55;7.30;;;;;;;19.69;85.47;100054.09;3596036;39;20070;-53
2021/06/22 00:45:36;;;;;;;10.75;6.25;;;;;;;19.53;86.85;100054.16;3589405;39;20985;-54
2021/06/22 00:48:07;;;;;;;9.65;6.95;;;;;;;19.45;87.53;100055.03;3584979;40;20515;-54
2021/06/22 00:50:36;;;;;;;7.45;5.93;;;;;;;19.55;87.50;100061.94;3587473;40;20080;-52
2021/06/22 00:53:07;;;;;;;12.18;6.60;;;;;;;19.56;86.68;100063.59;3586237;40;20121;-55
2021/06/22 00:55:35;;;;;;;7.50;5.93;;;;;;;19.60;86.47;100065.75;3586178;40;20059;-54
2021/06/22 00:58:24;;;;;;;8.02;6.00;;;;;;;19.71;86.84;100053.13;3595061;40;20133;-52
2021/06/22 01:00:54;;;;;;;11.05;6.72;;;;;;;19.60;88.07;100059.63;3595793;39;20055;-56
2021/06/22 01:03:22;;;;;;;7.32;6.53;;;;;;;19.67;87.16;100072.03;3595906;39;20055;-53
2021/06/22 01:05:52;;;;;;;8.85;6.40;;;;;;;19.61;87.06;100063.97;3596107;39;20052;-50
2021/06/22 01:08:21;;;;;;;6.65;6.00;;;;;;;19.63;86.42;100060.13;3595892;39;20052;-54
2021/06/22 01:10:50;;;;;;;10.20;7.40;;;;;;;19.70;86.11;100070.84;3596298;39;20044;-54
2021/06/22 01:13:18;;;;;;;11.25;7.93;;;;;;;19.67;86.34;100064.09;3594811;40;20533;-53
2021/06/22 01:15:46;;;;;;;8.98;6.80;;;;;;;19.70;86.76;100073.50;3595053;39;20183;-53
2021/06/22 01:18:14;;;;;;;11.00;5.97;;;;;;;19.78;86.60;100070.81;3585497;40;20040;-53
2021/06/22 01:21:00;;;;;;;8.32;6.25;;;;;;;19.73;86.96;100065.22;3586152;40;20043;-53
2021/06/22 01:23:37;;;;;;;9.32;6.55;;;;;;;19.77;86.83;100065.69;3594594;40;20445;-54
2021/06/22 01:26:04;;;;;;;7.20;6.45;;;;;;;19.82;86.99;100069.47;3595504;39;20475;-54
2021/06/22 01:28:36;;;;;;;8.85;7.35;;;;;;;19.81;86.59;100070.47;3595355;39;20070;-55
2021/06/22 01:31:14;;;;;;;7.57;6.07;;;;;;;19.82;86.81;100080.09;3595740;39;20443;-53
2021/06/22 01:33:45;;;;;;;9.45;6.80;;;;;;;19.88;86.35;100075.91;3595539;39;20044;-53
2021/06/22 01:36:14;;;;;;;9.48;7.10;;;;;;;19.97;85.37;100080.16;3594376;39;20044;-54
2021/06/22 01:38:41;;;;;;;7.32;5.93;;;;;;;19.99;84.75;100078.19;3595648;39;20048;-52
2021/06/22 01:41:10;;;;;;;6.15;5.53;;;;;;;19.98;85.78;100086.28;3594431;40;20044;-53
2021/06/22 01:43:40;;;;;;;10.20;6.93;;;;;;;20.01;85.50;100088.63;3594814;39;20081;-53
2021/06/22 01:46:07;;;;;;;6.57;5.93;;;;;;;20.06;85.38;100089.72;3586804;40;20409;-52
2021/06/22 01:48:35;;;;;;;9.02;6.13;;;;;;;19.85;87.46;100094.84;3585678;40;20056;-54
2021/06/22 01:51:02;;;;;;;6.50;5.70;;;;;;;20.16;85.33;100089.50;3585373;40;20071;-55
2021/06/22 01:53:30;;;;;;;10.30;6.13;;;;;;;20.16;85.47;100095.63;3584522;40;20071;-54
2021/06/22 01:56:11;;;;;;;7.57;6.05;;;;;;;20.23;84.71;100089.63;3585940;40;20068;-54
2021/06/22 01:58:44;;;;;;;7.93;5.80;;;;;;;20.22;85.10;100096.75;3593939;40;20056;-55
2021/06/22 02:01:31;;;;;;;7.72;5.90;;;;;;;20.20;85.73;100096.13;3595658;40;20129;-53
2021/06/22 02:04:03;;;;;;;7.30;5.50;;;;;;;20.25;85.43;100090.28;3594432;39;20052;-50
2021/06/22 02:06:31;;;;;;;8.60;6.30;;;;;;;20.17;86.64;100099.94;3594189;40;20056;-55
2021/06/22 02:09:17;;;;;;;8.35;5.45;;;;;;;20.33;85.37;100098.19;3595343;40;20046;-53
2021/06/22 02:11:46;;;;;;;7.40;5.47;;;;;;;20.37;84.69;100099.50;3595209;39;20309;-56
2021/06/22 02:14:13;;;;;;;6.75;5.75;;;;;;;20.39;85.12;100100.97;3595666;40;20045;-56
2021/06/22 02:16:42;;;;;;;8.23;6.07;;;;;;;20.40;86.62;100107.09;3595391;39;20040;-51
2021/06/22 02:19:10;;;;;;;7.95;5.50;;;;;;;20.38;86.02;100107.28;3595423;39;20510;-56
2021/06/22 02:21:38;;;;;;;7.57;5.68;;;;;;;20.46;85.77;100115.19;3585589;40;20130;-54
2021/06/22 02:24:09;;;;;;;6.10;5.50;;;;;;;20.53;85.38;100117.16;3591298;40;20377;-55
2021/06/22 02:26:37;;;;;;;6.47;5.30;;;;;;;20.55;85.26;100117.81;3585549;40;20049;-53
2021/06/22 02:29:05;;;;;;;9.05;6.22;;;;;;;20.57;85.35;100113.16;3583957;40;20049;-50
2021/06/22 02:31:32;;;;;;;6.72;5.50;;;;;;;20.57;85.43;100115.81;3585548;40;20049;-54
2021/06/22 02:34:02;;;;;;;8.48;5.95;;;;;;;20.60;84.64;100116.25;3591659;40;20044;-53
2021/06/22 02:36:33;;;;;;;6.68;5.68;;;;;;;20.56;84.75;100122.97;3584027;40;20322;-56
2021/06/22 02:39:01;;;;;;;8.85;6.05;;;;;;;20.60;84.75;100118.91;3587194;40;20106;-53
2021/06/22 02:41:31;;;;;;;7.40;6.55;;;;;;;20.62;84.37;100116.09;3585817;40;20048;-56
2021/06/22 02:44:03;;;;;;;5.63;5.10;;;;;;;20.67;84.19;100111.88;3585852;40;20049;-55
2021/06/22 02:46:37;;;;;;;6.43;4.95;;;;;;;20.72;84.42;100108.69;3596182;40;20063;-53
2021/06/22 02:49:05;;;;;;;6.03;5.43;;;;;;;20.75;84.78;100116.31;3595878;39;20045;-54
2021/06/22 02:51:37;;;;;;;6.43;5.20;;;;;;;20.87;83.62;100114.88;3596922;39;20058;-54
2021/06/22 02:54:05;;;;;;;11.02;5.35;;;;;;;20.93;84.53;100108.81;3595745;40;20064;-56
2021/06/22 02:56:32;;;;;;;6.25;5.03;;;;;;;20.95;84.27;100109.47;3596973;39;20067;-54
2021/06/22 02:59:01;;;;;;;54.78;36.70;;;;;;;20.93;84.95;100110.66;3595274;40;20180;-57
2021/06/22 03:01:29;;;;;;;65.53;46.50;;;;;;;21.01;83.40;100105.25;3596644;39;20043;-53
2021/06/22 03:03:58;;;;;;;25.27;17.77;;;;;;;21.00;83.64;100108.94;3595698;40;20084;-51
2021/06/22 03:06:27;;;;;;;12.60;9.77;;;;;;;21.07;84.91;100109.03;3596604;40;20080;-54
2021/06/22 03:09:01;;;;;;;7.20;6.47;;;;;;;21.15;83.19;100103.63;3587301;40;20089;-54
2021/06/22 03:11:36;;;;;;;10.65;6.05;;;;;;;21.11;84.83;100105.00;3587951;40;20084;-55
2021/06/22 03:14:05;;;;;;;7.75;5.82;;;;;;;21.14;83.88;100116.09;3593593;40;20075;-49
2021/06/22 03:16:40;;;;;;;6.40;5.35;;;;;;;21.16;83.36;100106.09;3596634;39;20052;-52
2021/06/22 03:19:09;;;;;;;10.13;6.15;;;;;;;21.26;84.34;100111.16;3596511;39;20044;-56
2021/06/22 03:21:44;;;;;;;8.63;5.82;;;;;;;21.38;83.43;100108.91;3596707;39;20087;-54
2021/06/22 03:24:14;;;;;;;7.65;5.38;;;;;;;21.40;83.59;100110.34;3596357;39;20071;-52
2021/06/22 03:26:42;;;;;;;9.93;6.07;;;;;;;21.57;80.62;100104.84;3595826;39;20048;-53
2021/06/22 03:29:10;;;;;;;17.80;9.85;;;;;;;21.70;81.35;100108.50;3596911;39;20077;-53
2021/06/22 03:32:00;;;;;;;32.05;21.15;;;;;;;21.84;80.11;100108.63;3586691;40;20071;-53
2021/06/22 03:34:27;;;;;;;23.58;15.63;;;;;;;;;;3586782;40;20057;-51
2021/06/22 03:36:55;;;;;;;9.63;7.70;;;;;;;22.03;78.59;100104.56;3586643;40;20045;-54
2021/06/22 03:39:24;;;;;;;9.10;6.05;;;;;;;22.14;78.64;100107.59;3595988;39;20055;-55
2021/06/22 03:41:51;;;;;;;9.15;6.78;;;;;;;22.21;77.92;100104.97;3596645;39;20047;-52
2021/06/22 03:44:19;;;;;;;9.70;5.82;;;;;;;22.37;77.96;100114.59;3593456;40;20055;-55
2021/06/22 03:47:00;;;;;;;5.57;4.60;;;;;;;22.49;77.35;100108.53;3594594;40;20125;-54
2021/06/22 03:49:29;;;;;;;7.93;5.57;;;;;;;22.60;76.05;100112.56;3596281;39;20052;-55
2021/06/22 03:51:56;;;;;;;5.78;4.85;;;;;;;22.81;78.08;100118.88;3596483;39;20056;-50
2021/06/22 03:54:28;;;;;;;6.40;4.90;;;;;;;22.91;77.04;100114.88;3595459;40;20055;-53
2021/06/22 03:56:56;;;;;;;7.38;5.65;;;;;;;23.04;73.84;100110.66;3595256;39;20075;-50
2021/06/22 03:59:35;;;;;;;8.27;5.18;;;;;;;23.17;73.39;100114.25;3593754;39;20052;-55
2021/06/22 04:02:03;;;;;;;6.90;4.85;;;;;;;23.28;72.68;100115.53;3586398;40;20055;-54
2021/06/22 04:04:30;;;;;;;10.32;5.50;;;;;;;23.43;72.85;100104.72;3586280;40;20158;-51
2021/06/22 04:07:13;;;;;;;;;;;;;;;23.60;73.74;100106.03;3586872;40;20040;-50
2021/06/22 04:09:42;;;;;;;4.70;4.18;;;;;;;23.68;72.18;100113.06;3585392;40;19928;-49
2021/06/22 04:12:09;;;;;;;6.93;4.63;;;;;;;23.78;73.00;100121.53;3585378;40;20421;-53
2021/06/22 04:14:38;;;;;;;10.60;5.30;;;;;;;23.88;71.08;100114.00;3594290;40;20056;-53
2021/06/22 04:17:06;;;;;;;5.80;4.65;;;;;;;23.91;71.24;100110.09;3595019;39;20063;-53
2021/06/22 04:19:37;;;;;;;10.88;5.05;;;;;;;23.88;73.94;100114.00;3596203;39;20047;-54
2021/06/22 04:22:05;;;;;;;14.13;5.63;;;;;;;23.98;70.86;100114.44;3595245;40;20048;-54
2021/06/22 04:24:53;;;;;;;16.27;10.05;;;;;;;24.08;69.00;100119.41;3593448;40;20409;-54
2021/06/22 04:27:20;;;;;;;8.35;6.07;;;;;;;24.16;68.85;100121.84;3590646;40;20448;-55
2021/06/22 04:29:48;;;;;;;6.22;5.28;;;;;;;24.33;67.55;100116.16;3586419;40;20137;-52
2021/06/22 04:32:16;;;;;;;7.82;4.70;;;;;;;24.40;68.52;100119.66;3587452;40;20089;-55
2021/06/22 04:34:43;;;;;;;11.13;4.97;;;;;;;24.62;65.32;100128.34;3586239;39;20089;-53
2021/06/22 04:37:11;;;;;;;12.15;4.53;;;;;;;24.50;64.52;100126.28;3586326;40;20453;-55
2021/06/22 04:39:39;;;;;;;7.70;4.75;;;;;;;24.47;63.22;100128.53;3586428;40;20063;-53
2021/06/22 04:42:06;;;;;;;8.25;4.82;;;;;;;24.49;66.07;100124.63;3586006;40;20048;-55
2021/06/22 04:44:33;;;;;;;7.43;4.50;;;;;;;24.67;64.69;100125.88;3591380;40;20068;-56
2021/06/22 04:47:00;;;;;;;6.95;4.63;;;;;;;24.69;68.43;100123.84;3586199;40;20061;-54
2021/06/22 04:49:28;;;;;;;8.40;4.50;;;;;;;24.60;68.76;100122.38;3586219;40;20153;-56
2021/06/22 04:51:56;;;;;;;7.18;4.10;;;;;;;24.81;65.97;100124.03;3595244;40;20060;-51
2021/06/22 04:54:24;;;;;;;7.65;4.55;;;;;;;24.91;67.75;100124.44;3596157;39;20046;-56
2021/06/22 04:56:52;;;;;;;9.80;5.05;;;;;;;24.75;63.65;100134.53;3590145;39;20086;-55
2021/06/22 04:59:19;;;;;;;4.95;4.10;;;;;;;24.95;62.24;100129.16;3585476;40;20056;-51
2021/06/22 05:01:47;;;;;;;9.50;4.72;;;;;;;24.88;65.60;100133.72;3595703;39;20048;-52
2021/06/22 05:04:14;;;;;;;8.07;4.10;;;;;;;24.93;63.73;100133.09;3595972;39;20059;-53
2021/06/22 05:06:42;;;;;;;8.38;4.38;;;;;;;25.06;62.66;100119.66;3596120;39;20051;-56
2021/06/22 05:09:11;;;;;;;6.25;3.60;;;;;;;25.27;65.16;100124.00;3595854;39;20040;-57
2021/06/22 05:11:39;;;;;;;23.00;16.23;;;;;;;25.25;63.40;100118.03;3586114;40;20137;-58
2021/06/22 05:14:07;;;;;;;28.27;15.52;;;;;;;25.31;63.71;100111.84;3585969;40;20063;-52
2021/06/22 05:16:34;;;;;;;18.52;11.65;;;;;;;25.43;59.97;100112.81;3584923;40;20347;-52
2021/06/22 05:19:03;;;;;;;9.02;6.05;;;;;;;25.45;62.86;100115.31;3585566;40;20414;-54
2021/06/22 05:21:31;;;;;;;7.43;4.63;;;;;;;25.52;59.12;100121.47;3584592;40;20132;-53
2021/06/22 05:23:58;;;;;;;4.80;4.10;;;;;;;25.69;59.04;100128.00;3586118;40;20058;-52
2021/06/22 05:26:25;;;;;;;6.03;4.35;;;;;;;25.81;61.27;100117.44;3585829;40;20129;-54
2021/06/22 05:28:53;;;;;;;7.03;3.78;;;;;;;25.85;58.61;100118.69;3595692;40;20107;-54
2021/06/22 05:31:20;;;;;;;6.38;4.07;;;;;;;25.79;61.72;100120.34;3595759;39;20051;-52
2021/06/22 05:33:48;;;;;;;10.25;4.38;;;;;;;25.76;58.35;100122.63;3586806;40;20055;-51
2021/06/22 05:36:15;;;;;;;6.03;4.78;;;;;;;25.75;60.79;100131.69;3585662;40;20052;-55
2021/06/22 05:38:42;;;;;;;6.72;4.32;;;;;;;25.92;62.43;100132.03;3585703;40;20096;-54
2021/06/22 05:41:10;;;;;;;5.57;4.10;;;;;;;25.85;60.81;100124.03;3586247;40;20145;-53
2021/06/22 05:43:37;;;;;;;10.15;4.25;;;;;;;26.03;57.39;100134.88;3586207;40;20060;-53
2021/06/22 05:46:05;;;;;;;10.52;4.05;;;;;;;26.16;63.47;100135.81;3594209;40;20297;-51
2021/06/22 05:48:32;;;;;;;7.68;4.05;;;;;;;26.22;58.20;100134.97;3595769;39;20148;-54
2021/06/22 05:51:00;;;;;;;6.70;4.43;;;;;;;26.28;57.50;100132.25;3595762;39;20060;-53
2021/06/22 05:53:28;;;;;;;6.40;4.28;;;;;;;26.33;57.99;100130.78;3595664;39;20049;-52
2021/06/22 05:55:55;;;;;;;5.20;4.53;;;;;;;26.28;57.49;100123.38;3585735;39;20049;-53
2021/06/22 05:58:22;;;;;;;7.43;4.45;;;;;;;26.38;57.98;100122.91;3585746;40;20141;-51
2021/06/22 06:00:49;;;;;;;6.05;4.45;;;;;;;26.60;56.69;100123.41;3585827;40;20419;-53
2021/06/22 06:03:17;;;;;;;6.25;4.10;;;;;;;26.50;56.98;100123.91;3585678;40;20080;-53
2021/06/22 06:05:44;;;;;;;6.80;4.70;;;;;;;26.65;60.05;100137.81;3595139;40;20124;-54
2021/06/22 06:08:11;;;;;;;5.88;3.65;;;;;;;26.83;59.24;100126.31;3595752;39;20084;-53
2021/06/22 06:10:40;;;;;;;15.55;8.98;;;;;;;26.58;58.83;100125.47;3595771;39;20052;-53
2021/06/22 06:13:07;;;;;;;9.63;5.05;;;;;;;26.68;58.83;100131.16;3596606;39;20063;-55
2021/06/22 06:15:36;;;;;;;5.25;4.20;;;;;;;26.86;58.45;100125.03;3597151;39;20051;-54
2021/06/22 06:18:04;;;;;;;5.78;3.70;;;;;;;26.88;60.30;100122.97;3596958;39;20044;-55
2021/06/22 06:20:32;;;;;;;7.32;4.25;;;;;;;27.44;56.19;100119.31;3596928;39;20048;-52
2021/06/22 06:22:59;;;;;;;8.20;4.10;;;;;;;27.47;54.57;100117.00;3596820;39;20056;-53
2021/06/22 06:25:27;;;;;;;7.65;4.45;;;;;;;27.52;59.39;100122.53;3596978;39;20048;-55
2021/06/22 06:28:01;;;;;;;9.60;4.15;;;;;;;27.85;55.18;100115.94;3596766;39;20063;-55
2021/06/22 06:30:30;;;;;;;8.95;3.97;;;;;;;27.85;57.08;100121.31;3596397;39;20084;-51
2021/06/22 06:32:59;;;;;;;10.27;4.43;;;;;;;28.15;53.95;100120.50;3597010;39;20052;-55
2021/06/22 06:35:26;;;;;;;7.60;4.05;;;;;;;28.14;56.00;100117.00;3596924;39;20040;-53
2021/06/22 06:37:55;;;;;;;6.93;4.40;;;;;;;28.55;54.78;100123.47;3596574;39;20056;-54
2021/06/22 06:40:22;;;;;;;5.68;3.85;;;;;;;28.60;54.42;100114.69;3596963;39;20052;-53
2021/06/22 06:42:49;;;;;;;8.68;3.80;;;;;;;28.60;56.57;100115.50;3596846;39;20055;-55
2021/06/22 06:45:18;;;;;;;8.55;3.85;;;;;;;28.37;52.64;100121.66;3591157;39;20049;-53
2021/06/22 06:47:46;;;;;;;8.90;4.00;;;;;;;28.49;53.03;100117.13;3586320;40;20060;-54
2021/06/22 06:50:15;;;;;;;39.45;21.63;;;;;;;28.47;51.85;100121.09;3586996;40;20048;-52
2021/06/22 06:52:42;;;;;;;20.83;11.48;;;;;;;28.25;52.42;100121.63;3587176;40;20056;-59
2021/06/22 06:55:28;;;;;;;12.85;5.22;;;;;;;28.58;54.02;100115.75;3587024;40;20085;-53
2021/06/22 06:58:02;;;;;;;7.15;4.18;;;;;;;28.83;51.16;100112.03;3586573;40;20071;-53
2021/06/22 07:00:32;;;;;;;5.55;3.33;;;;;;;28.84;52.30;100119.03;3586831;40;20064;-52
2021/06/22 07:03:00;;;;;;;6.40;3.70;;;;;;;29.05;50.54;100118.47;3586818;40;20056;-53
2021/06/22 07:05:28;;;;;;;9.98;3.67;;;;;;;28.90;50.09;100119.97;3586764;40;20445;-55
2021/06/22 07:07:56;;;;;;;11.57;3.67;;;;;;;28.87;52.67;100118.59;3585304;40;20067;-54
2021/06/22 07:10:25;;;;;;;9.98;3.83;;;;;;;28.89;51.72;100119.16;3588510;40;20390;-56
2021/06/22 07:12:55;;;;;;;8.95;3.55;;;;;;;29.45;50.53;100125.00;3590753;40;20105;-55
2021/06/22 07:15:23;;;;;;;14.50;4.30;;;;;;;29.34;50.34;100119.41;3596830;39;20040;-57
2021/06/22 07:17:52;;;;;;;7.70;4.07;;;;;;;29.48;51.94;100119.13;3596439;39;20460;-52
2021/06/22 07:20:19;;;;;;;12.43;4.10;;;;;;;29.45;48.22;100114.22;3590234;39;20060;-57
2021/06/22 07:22:47;;;;;;;6.40;3.58;;;;;;;29.44;49.76;100112.59;3586357;40;20052;-59
2021/06/22 07:25:16;;;;;;;10.80;4.13;;;;;;;29.78;48.52;100117.09;3596040;40;20449;-54
2021/06/22 07:27:44;;;;;;;8.32;3.72;;;;;;;29.68;50.12;100116.06;3596557;39;20058;-57
2021/06/22 07:30:12;;;;;;;6.80;3.67;;;;;;;29.62;52.48;100117.00;3596924;39;20056;-57
2021/06/22 07:32:39;;;;;;;8.93;3.67;;;;;;;29.57;52.47;100112.34;3596321;39;20048;-55
2021/06/22 07:35:07;;;;;;;14.40;4.25;;;;;;;29.73;51.47;100108.91;3596644;39;20437;-55
2021/06/22 07:37:35;;;;;;;8.45;3.60;;;;;;;29.60;55.40;100114.56;3596314;39;20064;-58
2021/06/22 07:40:03;;;;;;;19.83;4.57;;;;;;;29.61;50.56;100104.59;3596378;39;20048;-55
2021/06/22 07:42:30;;;;;;;12.02;4.13;;;;;;;29.11;52.31;100122.13;3596097;39;20044;-58
2021/06/22 07:44:57;;;;;;;16.92;4.35;;;;;;;29.64;50.04;100114.91;3592186;39;20053;-56
2021/06/22 07:47:25;;;;;;;11.02;4.40;;;;;;;29.88;50.18;100113.78;3586455;40;20056;-51
2021/06/22 07:49:52;;;;;;;12.88;4.13;;;;;;;30.01;47.32;100104.56;3586638;40;20064;-54
2021/06/22 07:52:19;;;;;;;11.70;3.90;;;;;;;30.07;47.35;100106.28;3585361;40;20161;-55
2021/06/22 07:54:47;;;;;;;9.07;4.07;;;;;;;30.19;46.34;100100.84;3586453;40;20080;-56
2021/06/22 07:57:15;;;;;;;7.72;3.47;;;;;;;30.48;48.09;100112.41;3592669;40;20045;-59
2021/06/22 07:59:43;;;;;;;20.60;10.73;;;;;;;30.43;46.79;100102.34;3586129;40;20277;-50
2021/06/22 08:02:11;;;;;;;11.77;4.55;;;;;;;30.37;45.87;100091.72;3586558;40;20456;-61
2021/06/22 08:04:38;;;;;;;12.48;4.47;;;;;;;30.47;44.61;100100.81;3586332;40;20067;-56
2021/06/22 08:07:05;;;;;;;12.13;3.90;;;;;;;30.93;44.25;100093.44;3590791;40;20048;-56
2021/06/22 08:09:33;;;;;;;8.43;3.22;;;;;;;31.30;44.73;100091.00;3595966;39;20052;-55
2021/06/22 08:12:01;;;;;;;12.90;3.67;;;;;;;30.95;44.36;100098.59;3596265;39;20076;-59
2021/06/22 08:14:28;;;;;;;8.70;3.50;;;;;;;30.82;45.98;100095.19;3596154;39;20356;-56
2021/06/22 08:16:56;;;;;;;11.05;3.30;;;;;;;31.29;44.45;100088.56;3596262;39;20032;-57
2021/06/22 08:19:23;;;;;;;8.20;3.47;;;;;;;31.65;44.18;100087.09;3595829;39;20413;-57
2021/06/22 08:21:50;;;;;;;10.05;3.20;;;;;;;31.89;43.35;100092.25;3586760;40;20048;-58
2021/06/22 08:24:17;;;;;;;12.73;3.30;;;;;;;32.20;44.45;100085.25;3596430;39;20133;-57
2021/06/22 08:26:45;;;;;;;10.50;3.05;;;;;;;31.89;43.32;100078.72;3596481;39;20048;-56
2021/06/22 08:29:12;;;;;;;6.13;3.20;;;;;;;32.03;42.54;100080.75;3586310;40;20088;-56
2021/06/22 08:31:39;;;;;;;12.18;3.20;;;;;;;32.01;41.27;100074.78;3586194;40;20048;-57
2021/06/22 08:34:07;;;;;;;8.75;3.22;;;;;;;31.92;42.33;100073.63;3585893;40;20055;-57
2021/06/22 08:36:34;;;;;;;11.70;3.55;;;;;;;31.44;44.23;100075.22;3586023;40;20139;-55
2021/06/22 08:39:04;;;;;;;6.47;2.80;;;;;;;31.78;47.37;100077.78;3595902;39;20133;-55
2021/06/22 08:41:33;;;;;;;5.20;2.90;;;;;;;32.12;44.12;100071.09;3595982;39;20231;-56
2021/06/22 08:44:04;;;;;;;29.50;20.27;;;;;;;31.42;43.20;100069.25;3595820;39;20066;-59
2021/06/22 08:46:32;;;;;;;14.20;9.23;;;;;;;31.84;44.00;100072.19;3586501;40;20049;-60
2021/06/22 08:49:00;;;;;;;9.32;3.17;;;;;;;32.56;41.41;100078.25;3586308;40;20067;-59
2021/06/22 08:51:36;;;;;;;11.95;3.72;;;;;;;31.81;42.52;100075.38;3586692;40;20133;-57
2021/06/22 08:54:05;;;;;;;10.50;2.90;;;;;;;31.23;46.69;100067.91;3587510;39;20452;-56
2021/06/22 08:56:34;;;;;;;13.00;3.35;;;;;;;32.32;41.70;100069.63;3586043;40;20056;-54
2021/06/22 08:59:02;;;;;;;12.07;3.50;;;;;;;31.72;43.24;100063.38;3586275;40;20051;-55
2021/06/22 09:01:30;;;;;;;9.85;3.00;;;;;;;31.58;45.01;100064.84;3595666;40;20048;-53
2021/06/22 09:03:57;;;;;;;6.50;2.80;;;;;;;32.36;43.63;100068.06;3596154;39;20056;-55
2021/06/22 09:06:26;;;;;;;6.43;3.40;;;;;;;32.10;47.09;100062.44;3595867;39;20050;-55
2021/06/22 09:08:55;;;;;;;11.52;3.78;;;;;;;32.63;40.53;100059.91;3595788;39;20044;-54
2021/06/22 09:11:23;;;;;;;11.30;3.22;;;;;;;32.12;42.60;100065.69;3595889;39;20059;-55
2021/06/22 09:14:06;;;;;;;12.32;3.45;;;;;;;32.32;41.45;100066.94;3594890;39;20064;-54
2021/06/22 09:16:33;;;;;;;9.02;3.35;;;;;;;33.00;43.27;100068.00;3595321;39;20185;-52
2021/06/22 09:19:06;;;;;;;9.63;3.35;;;;;;;33.25;42.25;100066.50;3595576;39;20104;-55
2021/06/22 09:21:43;;;;;;;8.45;3.25;;;;;;;33.40;42.27;100071.97;3595224;39;20086;-52
2021/06/22 09:24:22;;;;;;;9.27;3.33;;;;;;;33.57;44.66;100059.06;3595851;39;20074;-54
2021/06/22 09:26:54;;;;;;;7.47;3.38;;;;;;;33.87;40.09;100068.34;3585884;40;20410;-54
2021/06/22 09:29:22;;;;;;;8.20;3.55;;;;;;;32.89;44.88;100058.16;3585553;40;20059;-55
2021/06/22 09:31:51;;;;;;;14.88;4.05;;;;;;;32.05;45.72;100054.28;3585974;40;20074;-56
2021/06/22 09:34:19;;;;;;;10.30;3.70;;;;;;;33.33;42.54;100060.56;3585472;40;20088;-55
2021/06/22 09:36:56;;;;;;;9.20;3.47;;;;;;;34.00;42.14;100048.03;3584681;40;20060;-56
2021/06/22 09:39:27;;;;;;;8.35;3.88;;;;;;;33.40;42.80;100047.56;3584387;40;20055;-56
2021/06/22 09:41:56;;;;;;;7.63;3.92;;;;;;;32.83;43.59;100048.38;3593725;40;20044;-55
2021/06/22 09:44:25;;;;;;;8.85;3.88;;;;;;;32.24;45.93;100053.91;3593680;39;20405;-53
2021/06/22 09:46:56;;;;;;;9.50;4.00;;;;;;;32.96;42.90;100056.06;3586743;40;20070;-52
2021/06/22 09:49:25;;;;;;;7.38;4.03;;;;;;;33.16;44.39;100049.09;3589217;39;20064;-51
2021/06/22 09:52:15;;;;;;;6.30;3.72;;;;;;;34.66;40.84;100037.16;3596928;40;20044;-54
2021/06/22 09:54:51;;;;;;;7.18;3.97;;;;;;;34.45;41.15;100043.66;3597329;39;20051;-55
2021/06/22 09:57:20;;;;;;;7.97;4.13;;;;;;;34.62;39.80;100036.88;3596864;39;20143;-54
2021/06/22 09:59:58;;;;;;;11.05;4.30;;;;;;;34.38;41.30;100035.81;3597114;39;20055;-55
2021/06/22 10:02:27;;;;;;;8.07;3.60;;;;;;;33.43;40.90;100022.66;3597169;39;20052;-54
2021/06/22 10:04:58;;;;;;;11.75;4.43;;;;;;;32.42;44.42;100028.31;3596161;39;20048;-53
2021/06/22 10:07:27;;;;;;;7.18;4.18;;;;;;;31.76;47.18;100031.22;3597043;39;20419;-55
2021/06/22 10:09:59;;;;;;;10.70;4.50;;;;;;;30.67;49.84;100034.69;3597033;39;20074;-54
2021/06/22 10:12:28;;;;;;;;;;;;;;;30.30;52.57;100037.94;3597746;39;20048;-55
2021/06/22 10:14:59;;;;;;;13.38;3.50;;;;;;;30.08;55.12;100038.59;3597048;40;19995;-55
2021/06/22 10:17:29;;;;;;;9.25;4.38;;;;;;;29.66;56.20;100040.00;3596879;39;20040;-53
2021/06/22 10:19:59;;;;;;;11.20;4.57;;;;;;;28.99;63.44;100049.41;3596976;39;20056;-55
2021/06/22 10:22:28;;;;;;;9.13;4.63;;;;;;;28.41;60.00;100038.63;3597398;39;20052;-57
2021/06/22 10:24:57;;;;;;;9.48;4.25;;;;;;;30.57;62.34;100029.94;3596825;40;20079;-58
2021/06/22 10:27:25;;;;;;;11.35;4.43;;;;;;;31.52;56.70;100011.78;3596930;39;20436;-53
2021/06/22 10:29:55;;;;;;;7.43;4.63;;;;;;;32.24;53.76;100018.72;3587125;40;20071;-55
2021/06/22 10:32:24;;;;;;;10.60;4.80;;;;;;;32.54;48.30;100027.06;3586995;40;20494;-56
2021/06/22 10:35:00;;;;;;;10.95;4.30;;;;;;;32.52;49.20;100009.44;3586828;40;20068;-58
2021/06/22 10:37:34;;;;;;;7.40;3.40;;;;;;;32.89;48.94;100009.38;3587037;40;20062;-55
2021/06/22 10:40:07;;;;;;;7.97;4.20;;;;;;;32.66;48.46;99996.25;3586963;39;20064;-57
2021/06/22 10:42:43;;;;;;;5.03;4.18;;;;;;;32.76;49.94;99996.28;3586940;40;20777;-53
2021/06/22 10:45:11;;;;;;;9.65;4.25;;;;;;;32.20;50.06;99995.94;3592020;40;20051;-53
2021/06/22 10:47:43;;;;;;;14.07;4.47;;;;;;;32.47;46.02;100010.22;3597102;39;20048;-54
2021/06/22 10:50:23;;;;;;;12.68;4.82;;;;;;;33.43;44.28;100000.16;3597067;40;20056;-55
2021/06/22 10:52:55;;;;;;;11.75;4.75;;;;;;;32.79;45.14;100001.19;3596863;39;20048;-54
2021/06/22 10:55:28;;;;;;;11.95;4.88;;;;;;;32.04;46.16;99997.69;3596782;39;20059;-55
2021/06/22 10:58:11;;;;;;;10.35;3.72;;;;;;;31.88;44.58;99999.47;3586463;40;20052;-56
2021/06/22 11:00:38;;;;;;;8.02;4.10;;;;;;;30.78;53.64;99998.72;3586665;40;20056;-55
2021/06/22 11:03:08;;;;;;;11.73;4.75;;;;;;;31.35;48.30;99999.16;3594490;40;20052;-55
2021/06/22 11:05:44;;;;;;;6.85;4.22;;;;;;;31.58;47.04;100003.47;3596722;39;20988;-56
2021/06/22 11:08:12;;;;;;;10.15;5.20;;;;;;;31.84;48.57;99984.81;3595585;40;20040;-55
2021/06/22 11:11:11;;;;;;;7.70;4.43;;;;;;;32.87;47.91;99981.75;3591620;39;20053;-55
2021/06/22 11:13:46;;;;;;;8.95;4.40;;;;;;;32.36;48.80;99984.13;3588265;39;20966;-54
2021/06/22 11:16:13;;;;;;;8.52;4.72;;;;;;;32.83;49.20;99976.03;3596260;40;21643;-54
2021/06/22 11:18:53;;;;;;;6.35;4.10;;;;;;;33.43;45.96;99968.44;3596840;39;20048;-56
2021/06/22 11:21:42;;;;;;;11.30;4.38;;;;;;;33.11;44.31;99963.97;3596570;39;20129;-55
2021/06/22 11:24:11;;;;;;;8.98;4.38;;;;;;;31.95;45.63;99961.34;3596560;39;20066;-55
2021/06/22 11:26:41;;;;;;;9.88;4.00;;;;;;;30.82;53.74;99962.84;3596466;39;20056;-55
2021/06/22 11:29:11;;;;;;;11.70;5.30;;;;;;;32.42;44.49;99963.34;3596356;39;20055;-55
2021/06/22 11:31:43;;;;;;;12.48;4.68;;;;;;;32.26;43.81;99968.63;3596797;39;20048;-55
2021/06/22 11:34:16;;;;;;;8.98;4.60;;;;;;;33.07;41.55;99957.44;3596568;39;20084;-55
2021/06/22 11:36:46;;;;;;;9.18;4.75;;;;;;;33.21;41.09;99943.41;3596612;39;20064;-55